Time;durP1;ratioP1;P1;durP2;ratioP2;P2;SDS_P1;SDS_P2;PMS_P1;PMS_P2;Temp;Humidity;BMP_temperature;BMP_pressure;BME280_temperature;BME280_humidity;BME280_pressure;Samples;Min_cycle;Max_cycle;Signal;HPM_P1;HPM_P2
2023/06/26 00:00:55;;;;;;;6.80;4.35;;;;;;;18.76;62.83;98641.91;5045241;28;20080;-95
2023/06/26 00:03:23;;;;;;;7.43;4.78;;;;;;;18.74;63.20;98644.72;5045868;28;20041;-94
2023/06/26 00:05:50;;;;;;;7.70;4.50;;;;;;;18.97;63.61;98685.53;5046176;28;20506;-94
2023/06/26 00:08:16;;;;;;;7.80;4.47;;;;;;;18.90;61.61;98663.50;5042633;28;20544;-94
2023/06/26 00:10:42;;;;;;;8.13;4.50;;;;;;;18.84;62.83;98650.41;5026323;28;20041;-94
2023/06/26 00:13:08;;;;;;;6.78;4.38;;;;;;;18.82;63.25;98639.75;5057085;28;20049;-95
2023/06/26 00:15:34;;;;;;;7.13;4.15;;;;;;;18.85;62.18;98639.53;5025032;28;20041;-93
2023/06/26 00:18:00;;;;;;;6.38;4.15;;;;;;;19.00;61.63;98647.63;5024343;28;20148;-94
2023/06/26 00:20:27;;;;;;;7.22;4.47;;;;;;;18.96;61.80;98641.56;5031324;28;20462;-93
2023/06/26 00:22:55;;;;;;;7.95;4.75;;;;;;;18.88;62.28;98638.47;5040947;28;20423;-93
2023/06/26 00:25:21;;;;;;;7.13;4.68;;;;;;;18.74;62.75;98643.88;5023668;28;20043;-93
2023/06/26 00:27:49;;;;;;;9.90;5.25;;;;;;;18.62;63.31;98640.94;5036552;28;20045;-94
2023/06/26 00:30:15;;;;;;;8.98;4.80;;;;;;;18.57;63.32;98643.06;5041859;28;20049;-94
2023/06/26 00:32:41;;;;;;;7.20;4.75;;;;;;;18.69;62.92;98641.44;5042728;28;20045;-93
2023/06/26 00:35:07;;;;;;;7.18;4.70;;;;;;;18.72;62.07;98619.72;5041807;28;20041;-94
2023/06/26 00:37:34;;;;;;;10.30;4.95;;;;;;;18.96;61.08;98638.00;5043041;28;20037;-93
2023/06/26 00:40:00;;;;;;;7.00;4.32;;;;;;;19.03;60.66;98631.25;5041972;28;20048;-92
2023/06/26 00:42:26;;;;;;;7.15;4.50;;;;;;;18.99;60.77;98629.72;5042652;28;20107;-93
2023/06/26 00:44:52;;;;;;;8.57;4.88;;;;;;;18.99;60.90;98625.19;5039253;28;20129;-94
2023/06/26 00:47:18;;;;;;;7.57;4.60;;;;;;;18.99;62.85;98646.75;5042707;28;20145;-95
2023/06/26 00:49:44;;;;;;;7.20;4.28;;;;;;;18.70;65.48;98632.41;5044317;28;20044;-93
2023/06/26 00:52:10;;;;;;;7.97;4.55;;;;;;;18.37;67.08;98621.91;5043383;28;20057;-94
2023/06/26 00:54:38;;;;;;;8.15;4.70;;;;;;;17.95;69.04;98631.59;5076921;28;20094;-94
2023/06/26 00:57:04;;;;;;;8.43;4.95;;;;;;;17.84;67.37;98630.41;5043597;28;20045;-94
2023/06/26 00:59:30;;;;;;;9.63;4.78;;;;;;;18.01;67.26;98633.91;5076387;28;20125;-94
2023/06/26 01:01:56;;;;;;;7.65;4.80;;;;;;;18.35;63.78;98629.19;5059131;28;20136;-93
2023/06/26 01:04:27;;;;;;;8.18;4.40;;;;;;;18.66;62.28;98631.72;5063665;28;20064;-94
2023/06/26 01:06:54;;;;;;;7.90;4.78;;;;;;;18.81;61.26;98632.63;5096306;28;20040;-94
2023/06/26 01:09:22;;;;;;;8.13;4.78;;;;;;;18.87;64.59;98653.78;5065082;28;20079;-94
2023/06/26 01:11:50;;;;;;;8.75;4.80;;;;;;;18.28;67.15;98628.69;5097511;28;20079;-93
2023/06/26 01:14:16;;;;;;;8.53;5.23;;;;;;;17.96;68.85;98625.28;5065274;28;20107;-94
2023/06/26 01:16:47;;;;;;;8.48;4.60;;;;;;;17.76;71.11;98661.34;5064294;28;20040;-94
2023/06/26 01:19:24;;;;;;;10.05;4.55;;;;;;;17.58;72.55;98647.16;5065101;28;20482;-94
2023/06/26 01:21:56;;;;;;;7.57;4.53;;;;;;;17.30;72.01;98623.69;5065376;28;20041;-94
2023/06/26 01:24:27;;;;;;;10.68;4.97;;;;;;;17.24;73.89;98639.22;5064901;28;20143;-94
2023/06/26 01:26:55;;;;;;;8.13;4.90;;;;;;;17.12;74.97;98653.31;5065222;28;20037;-94
2023/06/26 01:29:24;;;;;;;8.23;4.88;;;;;;;16.96;75.56;98637.19;5064546;28;20143;-94
2023/06/26 01:31:50;;;;;;;8.80;4.80;;;;;;;16.88;76.91;98636.75;5064844;28;20054;-94
2023/06/26 01:34:17;;;;;;;8.63;5.35;;;;;;;16.83;77.28;98634.31;5064557;28;20044;-94
2023/06/26 01:36:44;;;;;;;9.10;4.82;;;;;;;16.75;78.51;98632.97;5064338;28;20037;-95
2023/06/26 01:39:10;;;;;;;9.50;5.13;;;;;;;16.62;78.69;98628.25;5063295;28;20048;-94
2023/06/26 01:41:36;;;;;;;8.98;5.47;;;;;;;16.58;79.62;98631.19;5064028;28;20147;-95
2023/06/26 01:44:18;;;;;;;9.18;5.18;;;;;;;16.67;80.40;98648.63;5064078;28;20041;-95
2023/06/26 01:46:55;;;;;;;7.72;4.90;;;;;;;16.53;80.55;98639.50;5064044;28;20044;-94
2023/06/26 01:49:29;;;;;;;9.05;5.40;;;;;;;16.54;80.63;98627.78;5062644;28;20075;-94
2023/06/26 01:52:03;;;;;;;8.65;5.18;;;;;;;16.66;80.65;98647.75;5061727;28;20048;-95
2023/06/26 01:54:33;;;;;;;9.45;5.60;;;;;;;16.57;80.67;98633.00;5061160;28;20037;-93
2023/06/26 01:57:00;;;;;;;9.65;4.93;;;;;;;16.59;80.99;98638.28;5061243;28;20144;-94
2023/06/26 01:59:31;;;;;;;9.43;5.32;;;;;;;16.53;81.91;98639.50;5061146;28;20048;-94
2023/06/26 02:01:58;;;;;;;8.20;4.95;;;;;;;16.52;81.68;98637.75;5060032;28;20068;-94
2023/06/26 02:04:23;;;;;;;9.18;5.57;;;;;;;16.40;82.48;98627.69;5059629;28;20044;-93
2023/06/26 02:06:49;;;;;;;9.02;5.00;;;;;;;16.43;83.20;98635.56;5061555;28;20231;-93
2023/06/26 02:09:15;;;;;;;9.68;5.47;;;;;;;16.49;83.50;98650.47;5095209;28;20078;-93
2023/06/26 02:11:41;;;;;;;9.18;5.63;;;;;;;16.39;83.16;98631.28;5060744;28;20406;-94
2023/06/26 02:14:09;;;;;;;10.65;5.32;;;;;;;16.33;82.34;98626.25;5061443;28;20052;-94
2023/06/26 02:16:36;;;;;;;10.43;5.05;;;;;;;16.41;82.10;98629.41;5060964;28;20135;-93
2023/06/26 02:19:02;;;;;;;9.15;5.07;;;;;;;16.48;81.70;98633.50;5061843;28;20148;-93
2023/06/26 02:21:28;;;;;;;10.40;5.80;;;;;;;16.63;80.29;98643.44;5063495;28;20072;-93
2023/06/26 02:23:54;;;;;;;9.40;5.55;;;;;;;16.80;77.97;98625.53;5099720;28;20090;-94
2023/06/26 02:26:20;;;;;;;10.55;5.78;;;;;;;16.92;77.71;98630.25;5065614;28;20097;-93
2023/06/26 02:28:46;;;;;;;10.75;5.90;;;;;;;17.01;77.64;98627.06;5066239;28;20079;-93
2023/06/26 02:31:12;;;;;;;8.43;5.22;;;;;;;16.99;78.24;98630.78;5065783;28;20028;-93
2023/06/26 02:33:41;;;;;;;9.30;5.72;;;;;;;16.93;78.66;98626.59;5066062;28;20066;-93
2023/06/26 02:36:07;;;;;;;8.82;5.35;;;;;;;16.83;78.91;98623.56;5065611;28;20111;-93
2023/06/26 02:38:33;;;;;;;10.57;6.00;;;;;;;16.75;79.45;98628.44;5064406;28;20083;-93
2023/06/26 02:40:59;;;;;;;8.77;5.20;;;;;;;16.72;79.74;98631.31;5066117;28;20045;-95
2023/06/26 02:43:25;;;;;;;11.15;6.50;;;;;;;16.73;80.08;98642.91;5066126;28;20048;-94
2023/06/26 02:45:51;;;;;;;10.55;5.80;;;;;;;16.60;80.50;98630.16;5064911;28;20040;-93
2023/06/26 02:48:17;;;;;;;12.50;6.43;;;;;;;16.58;80.35;98623.13;5065137;28;20078;-93
2023/06/26 02:50:46;;;;;;;10.68;5.80;;;;;;;16.63;80.23;98623.75;5066232;28;20045;-94
2023/06/26 02:53:12;;;;;;;11.25;5.88;;;;;;;16.63;80.14;98621.94;5065859;28;20044;-93
2023/06/26 02:55:38;;;;;;;10.07;6.03;;;;;;;16.76;79.12;98634.69;5066613;28;20051;-93
2023/06/26 02:58:05;;;;;;;11.07;5.90;;;;;;;16.81;79.13;98622.78;5065795;28;20041;-93
2023/06/26 03:00:31;;;;;;;12.52;5.85;;;;;;;16.80;79.51;98623.72;5059237;28;20061;-93
2023/06/26 03:02:57;;;;;;;11.48;5.88;;;;;;;16.86;79.36;98640.47;5046195;28;20522;-94
2023/06/26 03:05:23;;;;;;;13.00;6.10;;;;;;;16.74;79.73;98625.84;5045480;28;20402;-92
2023/06/26 03:07:51;;;;;;;9.90;5.78;;;;;;;16.63;80.55;98624.63;5043880;28;20041;-93
2023/06/26 03:10:17;;;;;;;9.40;6.07;;;;;;;16.64;79.76;98623.66;5044445;28;20112;-94
2023/06/26 03:12:43;;;;;;;12.43;6.40;;;;;;;16.73;78.77;98619.63;5045568;28;20083;-94
2023/06/26 03:15:11;;;;;;;11.27;6.32;;;;;;;16.86;78.60;98627.91;5044962;28;20056;-93
2023/06/26 03:17:37;;;;;;;11.98;6.40;;;;;;;16.82;78.87;98629.88;5046547;28;20045;-93
2023/06/26 03:20:06;;;;;;;10.02;5.97;;;;;;;16.80;79.33;98625.53;5046552;28;20062;-95
2023/06/26 03:22:32;;;;;;;11.68;6.47;;;;;;;16.74;80.91;98637.47;5046533;28;20080;-93
2023/06/26 03:25:01;;;;;;;11.65;6.28;;;;;;;16.79;81.60;98664.94;5048907;28;20044;-95
2023/06/26 03:27:27;;;;;;;12.18;6.75;;;;;;;16.34;83.36;98625.31;5048289;28;20117;-94
2023/06/26 03:29:54;;;;;;;13.48;6.38;;;;;;;16.16;84.52;98622.66;5045193;28;20045;-95
2023/06/26 03:32:20;;;;;;;10.23;6.50;;;;;;;16.23;83.89;98625.88;5046671;28;20114;-96
2023/06/26 03:34:46;;;;;;;12.35;6.78;;;;;;;16.51;83.58;98667.38;5047596;28;20109;-95
2023/06/26 03:37:12;;;;;;;11.18;6.57;;;;;;;16.34;83.30;98619.94;5047835;28;20099;-95
2023/06/26 03:39:38;;;;;;;13.43;6.70;;;;;;;16.26;83.95;98628.38;5047329;28;20028;-95
2023/06/26 03:42:07;;;;;;;11.98;6.50;;;;;;;16.28;84.69;98631.84;5047258;28;20112;-94
2023/06/26 03:44:33;;;;;;;13.07;7.00;;;;;;;16.28;84.22;98633.69;5047748;28;20155;-96
2023/06/26 03:46:59;;;;;;;11.95;6.47;;;;;;;16.30;84.55;98631.78;5047181;28;20139;-96
2023/06/26 03:49:25;;;;;;;13.80;6.70;;;;;;;16.34;83.96;98628.00;5047935;28;20048;-96
2023/06/26 03:51:51;;;;;;;15.48;6.60;;;;;;;16.40;83.48;98635.72;5048705;28;20110;-95
2023/06/26 03:54:17;;;;;;;14.05;6.22;;;;;;;16.61;82.98;98671.28;5046311;28;20056;-94
2023/06/26 03:56:43;;;;;;;12.75;6.93;;;;;;;16.59;82.89;98649.91;5045609;28;20040;-94
2023/06/26 03:59:11;;;;;;;13.88;6.45;;;;;;;16.69;83.54;98668.19;5046760;28;20041;-95
2023/06/26 04:01:38;;;;;;;12.45;6.47;;;;;;;16.46;83.36;98635.41;5060864;28;20059;-96
2023/06/26 04:04:04;;;;;;;12.35;6.63;;;;;;;16.54;83.27;98629.59;5065355;28;20088;-95
2023/06/26 04:06:31;;;;;;;13.05;7.10;;;;;;;16.53;83.81;98633.25;5065821;28;20045;-95
2023/06/26 04:08:57;;;;;;;13.13;6.50;;;;;;;16.55;83.97;98626.00;5065870;28;20494;-94
2023/06/26 04:11:24;;;;;;;12.85;6.75;;;;;;;16.58;83.21;98633.88;5066063;28;20063;-94
2023/06/26 04:13:50;;;;;;;14.55;7.05;;;;;;;16.67;82.44;98637.88;5066943;28;20074;-94
2023/06/26 04:16:17;;;;;;;13.35;7.00;;;;;;;16.78;81.50;98640.84;5064840;28;20529;-94
2023/06/26 04:18:43;;;;;;;14.98;7.30;;;;;;;16.99;79.99;98649.59;5099594;28;20035;-94
2023/06/26 04:21:11;;;;;;;13.45;7.03;;;;;;;17.02;79.89;98636.84;5098878;28;20059;-95
2023/06/26 04:23:38;;;;;;;12.18;7.10;;;;;;;17.10;80.26;98641.78;5064970;28;20041;-94
2023/06/26 04:26:07;;;;;;;13.25;7.13;;;;;;;17.24;80.07;98659.84;5065015;28;20045;-95
2023/06/26 04:28:33;;;;;;;;;;;;;;;17.32;81.06;98684.44;5066762;28;20055;-96
2023/06/26 04:30:59;;;;;;;12.70;6.55;;;;;;;17.14;81.45;98648.72;5065994;28;20022;-94
2023/06/26 04:33:27;;;;;;;14.85;7.45;;;;;;;17.24;81.40;98673.28;5067748;28;20048;-96
2023/06/26 04:35:53;;;;;;;13.43;7.10;;;;;;;17.21;80.68;98643.88;5067570;28;20037;-96
2023/06/26 04:38:21;;;;;;;15.88;6.75;;;;;;;17.33;79.98;98653.94;5068004;28;20071;-95
2023/06/26 04:40:47;;;;;;;12.32;6.65;;;;;;;17.50;79.87;98663.75;5067790;28;20041;-95
2023/06/26 04:43:13;;;;;;;12.20;6.95;;;;;;;17.44;79.86;98650.66;5102450;28;20051;-95
2023/06/26 04:45:39;;;;;;;12.73;6.80;;;;;;;17.52;79.79;98655.56;5066538;28;20036;-94
2023/06/26 04:48:06;;;;;;;15.43;7.50;;;;;;;17.50;79.42;98646.72;5068255;28;20116;-96
2023/06/26 04:50:33;;;;;;;15.20;7.07;;;;;;;17.86;78.91;98690.34;5067413;28;20056;-95
2023/06/26 04:52:59;;;;;;;13.98;7.22;;;;;;;18.13;78.25;98649.34;5067829;28;20045;-95
2023/06/26 04:55:25;;;;;;;15.70;6.93;;;;;;;19.04;73.88;98652.72;5067545;28;20044;-96
2023/06/26 04:57:52;;;;;;;14.90;7.60;;;;;;;19.64;72.03;98656.94;5068606;28;20048;-94
2023/06/26 05:00:18;;;;;;;16.17;8.65;;;;;;;20.20;69.11;98650.56;5063060;28;20053;-94
2023/06/26 05:02:44;;;;;;;15.55;7.85;;;;;;;20.55;67.24;98640.00;5046741;28;20066;-94
2023/06/26 05:05:11;;;;;;;16.92;8.40;;;;;;;20.99;65.85;98640.56;5046896;28;20056;-95
2023/06/26 05:07:38;;;;;;;14.88;7.82;;;;;;;21.26;64.58;98646.69;5047405;28;20057;-95
2023/06/26 05:10:05;;;;;;;16.42;7.07;;;;;;;21.62;63.74;98654.91;5045136;28;20068;-94
2023/06/26 05:12:31;;;;;;;14.88;7.55;;;;;;;21.88;62.60;98659.28;5043822;28;20167;-95
2023/06/26 05:14:57;;;;;;;16.50;8.30;;;;;;;22.20;63.31;98663.22;5045081;28;20045;-95
2023/06/26 05:17:23;;;;;;;14.90;7.78;;;;;;;22.33;61.76;98654.03;5044826;28;20074;-94
2023/06/26 05:19:49;;;;;;;15.05;8.13;;;;;;;22.55;60.40;98642.41;5045268;28;20061;-95
2023/06/26 05:22:16;;;;;;;14.50;7.13;;;;;;;22.68;60.57;98642.28;5045315;28;20071;-94
2023/06/26 05:24:47;;;;;;;15.05;6.85;;;;;;;22.71;60.22;98666.47;5044987;28;20049;-95
2023/06/26 05:27:21;;;;;;;13.43;7.03;;;;;;;22.69;58.66;98637.75;5044018;28;20072;-94
2023/06/26 05:29:47;;;;;;;12.32;7.75;;;;;;;21.94;60.81;98645.25;5042781;28;20052;-95
2023/06/26 05:32:17;;;;;;;16.85;7.50;;;;;;;20.99;65.47;98649.56;5044760;28;20080;-94
2023/06/26 05:34:45;;;;;;;12.43;7.35;;;;;;;20.92;65.35;98642.84;5042496;28;20404;-96
2023/06/26 05:37:18;;;;;;;15.60;7.33;;;;;;;21.31;64.11;98649.03;5029673;28;20072;-95
2023/06/26 05:39:50;;;;;;;13.80;8.02;;;;;;;21.58;62.90;98666.94;5021871;28;20041;-95
2023/06/26 05:42:17;;;;;;;10.95;6.65;;;;;;;21.75;62.36;98671.97;5021204;28;20042;-95
2023/06/26 05:44:42;;;;;;;12.68;7.03;;;;;;;21.98;61.12;98647.75;5021169;28;20046;-95
2023/06/26 05:47:09;;;;;;;14.90;7.10;;;;;;;22.28;60.32;98637.28;5020995;28;20038;-95
2023/06/26 05:49:37;;;;;;;14.20;6.78;;;;;;;22.38;59.75;98656.41;5019437;28;20514;-95
2023/06/26 05:52:04;;;;;;;14.32;7.22;;;;;;;22.49;60.50;98637.47;5019606;28;20144;-95
2023/06/26 05:54:30;;;;;;;12.70;6.57;;;;;;;22.88;58.26;98637.13;5021803;28;20069;-95
2023/06/26 05:57:04;;;;;;;13.07;7.30;;;;;;;23.01;57.99;98646.06;5022982;28;20179;-95
2023/06/26 05:59:42;;;;;;;11.73;6.47;;;;;;;23.31;57.93;98645.44;5017778;28;20345;-96
2023/06/26 06:02:08;;;;;;;12.48;6.90;;;;;;;23.57;58.07;98645.13;5041532;28;20056;-95
2023/06/26 06:04:35;;;;;;;15.30;7.22;;;;;;;23.96;56.78;98665.44;5042217;28;20045;-95
2023/06/26 06:07:01;;;;;;;14.05;7.40;;;;;;;23.53;57.16;98649.06;5043164;28;20060;-96
2023/06/26 06:09:27;;;;;;;13.05;7.28;;;;;;;23.68;56.49;98641.53;5043631;28;20053;-95
2023/06/26 06:11:53;;;;;;;15.57;7.68;;;;;;;23.94;56.73;98670.13;5043314;28;20487;-96
2023/06/26 06:14:20;;;;;;;13.10;7.10;;;;;;;24.11;55.68;98667.84;5045507;28;20145;-96
2023/06/26 06:16:46;;;;;;;13.77;6.93;;;;;;;23.94;56.39;98642.97;5044104;28;20041;-96
2023/06/26 06:19:13;;;;;;;14.80;7.50;;;;;;;23.28;56.78;98650.25;5044539;28;20375;-95
2023/06/26 06:21:39;;;;;;;15.00;7.75;;;;;;;23.11;58.70;98660.59;5043106;28;20102;-95
2023/06/26 06:24:06;;;;;;;12.88;7.30;;;;;;;23.29;57.66;98644.69;5042139;28;20433;-96
2023/06/26 06:26:32;;;;;;;12.65;7.38;;;;;;;23.64;58.20;98645.47;5043011;28;20040;-94
2023/06/26 06:28:58;;;;;;;14.27;7.18;;;;;;;24.13;57.30;98654.97;5042765;28;20098;-95
2023/06/26 06:31:28;;;;;;;12.25;6.60;;;;;;;24.51;56.10;98661.75;5042642;28;20091;-95
2023/06/26 06:33:54;;;;;;;12.40;7.13;;;;;;;24.75;55.06;98650.59;5041952;28;20411;-95
2023/06/26 06:36:19;;;;;;;14.85;6.93;;;;;;;24.92;54.91;98657.28;5042440;28;20135;-95
2023/06/26 06:38:45;;;;;;;11.88;6.60;;;;;;;25.00;53.98;98646.56;5042963;28;20546;-94
2023/06/26 06:41:12;;;;;;;14.60;7.60;;;;;;;24.99;55.59;98647.56;5042583;28;20437;-95
2023/06/26 06:43:42;;;;;;;12.55;7.15;;;;;;;25.16;54.88;98655.09;5042182;28;20045;-95
2023/06/26 06:46:07;;;;;;;12.32;7.40;;;;;;;25.05;54.24;98643.44;5041660;28;20037;-95
2023/06/26 06:48:35;;;;;;;12.45;7.32;;;;;;;25.04;52.61;98647.16;5042350;28;20094;-95
2023/06/26 06:51:02;;;;;;;13.90;6.72;;;;;;;25.04;50.91;98647.16;5042229;28;20174;-95
2023/06/26 06:53:28;;;;;;;15.40;6.90;;;;;;;24.91;50.98;98650.97;5041315;28;20099;-95
2023/06/26 06:55:54;;;;;;;13.18;6.93;;;;;;;24.87;52.19;98646.78;5042276;28;20040;-95
2023/06/26 06:58:20;;;;;;;11.57;7.05;;;;;;;25.02;52.92;98661.75;5042545;28;20045;-95
2023/06/26 07:00:46;;;;;;;12.05;7.03;;;;;;;24.96;50.51;98651.44;5043487;28;20053;-94
2023/06/26 07:03:12;;;;;;;11.25;7.20;;;;;;;25.01;51.64;98648.31;5040594;28;20046;-95
2023/06/26 07:05:42;;;;;;;11.20;6.72;;;;;;;25.22;47.56;98653.72;5042639;28;20041;-94
2023/06/26 07:08:08;;;;;;;12.65;7.28;;;;;;;24.90;49.97;98637.53;5075610;28;20075;-95
2023/06/26 07:10:34;;;;;;;12.63;7.22;;;;;;;24.19;49.67;98625.44;5044078;28;20052;-93
2023/06/26 07:13:00;;;;;;;13.05;7.50;;;;;;;24.79;50.13;98662.94;5044634;28;20056;-94
2023/06/26 07:15:26;;;;;;;13.30;7.38;;;;;;;24.98;49.88;98646.72;5044293;28;20052;-95
2023/06/26 07:17:52;;;;;;;13.43;7.57;;;;;;;24.82;47.56;98646.34;5048299;28;20136;-94
2023/06/26 07:20:18;;;;;;;14.15;7.47;;;;;;;24.97;47.07;98636.81;5045679;28;20068;-93
2023/06/26 07:22:46;;;;;;;13.40;7.60;;;;;;;24.97;48.71;98660.47;5049078;28;20037;-94
2023/06/26 07:25:13;;;;;;;13.25;7.32;;;;;;;25.53;47.29;98665.44;5044137;28;20064;-94
2023/06/26 07:27:40;;;;;;;13.93;7.28;;;;;;;25.86;46.82;98649.72;5045071;28;20448;-94
2023/06/26 07:30:10;;;;;;;11.60;7.07;;;;;;;25.14;45.32;98643.50;5048150;28;20494;-93
2023/06/26 07:32:36;;;;;;;13.82;7.45;;;;;;;24.92;47.03;98644.53;5064785;28;20044;-94
2023/06/26 07:35:03;;;;;;;12.27;6.85;;;;;;;25.13;44.87;98639.03;5038075;28;20072;-94
2023/06/26 07:37:29;;;;;;;11.70;7.03;;;;;;;25.81;47.15;98655.59;5038944;28;20045;-94
2023/06/26 07:39:57;;;;;;;11.73;7.47;;;;;;;25.49;46.32;98644.06;5040541;28;20048;-94
2023/06/26 07:42:23;;;;;;;13.85;8.20;;;;;;;25.41;47.00;98645.59;5041288;28;20483;-95
2023/06/26 07:44:49;;;;;;;13.77;7.47;;;;;;;25.39;46.90;98647.63;5042434;28;20044;-95
2023/06/26 07:47:15;;;;;;;13.93;7.70;;;;;;;25.44;47.77;98673.56;5041142;28;20140;-94
2023/06/26 07:49:41;;;;;;;12.50;7.97;;;;;;;25.18;48.77;98652.25;5040616;28;20059;-94
2023/06/26 07:52:10;;;;;;;13.77;7.32;;;;;;;25.39;47.51;98663.09;5041944;28;20052;-95
2023/06/26 07:54:35;;;;;;;;;;;;;;;25.54;48.00;98675.31;5041128;28;20555;-94
2023/06/26 07:57:06;;;;;;;12.98;7.90;;;;;;;25.46;47.57;98639.78;5041427;28;19924;-95
2023/06/26 07:59:33;;;;;;;13.73;7.32;;;;;;;25.40;48.32;98648.50;5040612;28;20099;-95
2023/06/26 08:01:59;;;;;;;11.15;6.75;;;;;;;25.51;48.77;98644.81;5041171;28;20087;-96
2023/06/26 08:04:28;;;;;;;11.73;7.80;;;;;;;26.06;48.17;98638.88;5041636;28;20068;-95
2023/06/26 08:06:55;;;;;;;12.52;7.40;;;;;;;26.44;47.42;98629.84;5040811;28;20136;-95
2023/06/26 08:09:23;;;;;;;11.95;7.25;;;;;;;26.58;47.65;98634.00;5040719;28;20056;-94
2023/06/26 08:11:49;;;;;;;12.82;7.28;;;;;;;26.94;47.17;98636.94;5043759;28;20041;-94
2023/06/26 08:14:17;;;;;;;11.23;7.40;;;;;;;26.47;47.25;98639.59;5040237;28;20045;-94
2023/06/26 08:16:44;;;;;;;11.63;7.90;;;;;;;26.59;46.74;98658.41;5042754;28;20037;-94
2023/06/26 08:19:10;;;;;;;13.40;7.10;;;;;;;26.77;46.95;98641.28;5041436;28;20071;-94
2023/06/26 08:21:36;;;;;;;11.68;7.35;;;;;;;26.42;47.74;98635.41;5039131;28;20099;-94
2023/06/26 08:24:02;;;;;;;12.00;6.70;;;;;;;26.98;45.19;98647.38;5038408;28;20566;-95
2023/06/26 08:26:28;;;;;;;14.80;7.32;;;;;;;27.42;45.38;98666.78;5037844;28;20060;-95
2023/06/26 08:28:54;;;;;;;11.48;7.07;;;;;;;27.28;44.16;98650.03;5040791;28;20488;-94
2023/06/26 08:31:22;;;;;;;12.60;7.18;;;;;;;27.58;44.92;98633.31;5038279;28;20102;-94
2023/06/26 08:33:48;;;;;;;14.55;7.72;;;;;;;27.59;44.99;98659.66;5038738;28;20502;-93
2023/06/26 08:36:13;;;;;;;11.95;7.05;;;;;;;27.61;44.86;98654.88;5041206;28;20043;-95
2023/06/26 08:38:40;;;;;;;11.70;7.07;;;;;;;27.49;44.86;98639.72;5040403;28;20523;-95
2023/06/26 08:41:07;;;;;;;12.02;7.53;;;;;;;27.75;43.13;98636.25;5040560;28;20067;-95
2023/06/26 08:43:33;;;;;;;11.88;7.28;;;;;;;27.98;43.89;98639.44;5040598;28;20049;-95
2023/06/26 08:45:59;;;;;;;12.75;7.22;;;;;;;28.16;44.44;98639.44;5041245;28;20486;-94
2023/06/26 08:48:29;;;;;;;13.23;8.07;;;;;;;26.76;46.94;98654.06;5041354;28;20045;-94
2023/06/26 08:50:58;;;;;;;13.13;8.15;;;;;;;27.31;46.12;98647.88;5042009;28;20051;-95
2023/06/26 08:53:29;;;;;;;;;;;;;;;27.89;44.03;98657.63;5042497;28;20490;-95
2023/06/26 08:55:58;;;;;;;13.35;7.18;;;;;;;27.82;44.33;98634.63;5041678;28;19920;-92
2023/06/26 08:58:24;;;;;;;11.38;7.35;;;;;;;28.24;43.40;98617.63;5043192;28;20069;-94
2023/06/26 09:00:50;;;;;;;11.77;7.35;;;;;;;27.99;43.46;98641.16;5035228;28;20061;-95
2023/06/26 09:03:17;;;;;;;14.65;7.88;;;;;;;27.80;43.62;98633.91;5040567;28;20071;-93
2023/06/26 09:05:45;;;;;;;13.75;7.65;;;;;;;27.28;44.60;98642.69;5042664;28;20045;-94
2023/06/26 09:08:11;;;;;;;12.82;7.28;;;;;;;27.75;43.56;98633.53;5062555;28;20045;-95
2023/06/26 09:10:37;;;;;;;11.68;7.47;;;;;;;27.64;43.43;98621.78;5096166;28;20474;-94
2023/06/26 09:13:03;;;;;;;12.18;7.28;;;;;;;28.00;44.29;98646.47;5064652;28;20044;-95
2023/06/26 09:15:38;;;;;;;13.10;7.38;;;;;;;27.43;44.31;98643.94;5090472;28;20044;-92
2023/06/26 09:18:05;;;;;;;10.65;7.75;;;;;;;27.28;43.58;98625.44;5039622;28;20052;-94
2023/06/26 09:20:33;;;;;;;12.45;6.80;;;;;;;27.51;43.27;98618.56;5071971;28;20510;-94
2023/06/26 09:23:00;;;;;;;12.18;6.90;;;;;;;27.03;44.62;98615.03;5037772;28;20045;-94
2023/06/26 09:25:27;;;;;;;13.77;7.03;;;;;;;27.53;43.28;98622.00;5039636;28;20075;-93
2023/06/26 09:27:54;;;;;;;10.20;6.88;;;;;;;27.99;44.13;98603.72;5040886;28;20045;-94
2023/06/26 09:30:20;;;;;;;11.35;7.32;;;;;;;27.68;43.72;98607.84;5040225;28;20414;-95
2023/06/26 09:32:50;;;;;;;10.40;7.25;;;;;;;27.83;44.07;98609.88;5044066;28;20079;-96
2023/06/26 09:35:16;;;;;;;11.63;7.10;;;;;;;28.20;41.86;98597.09;5046297;28;20494;-93
2023/06/26 09:37:43;;;;;;;12.18;7.38;;;;;;;28.12;43.22;98597.03;5044129;28;20044;-94
2023/06/26 09:40:11;;;;;;;10.65;6.95;;;;;;;28.55;42.49;98606.28;5048335;28;20040;-93
2023/06/26 09:42:37;;;;;;;12.27;7.20;;;;;;;28.37;43.43;98615.34;5054380;28;20049;-94
2023/06/26 09:45:04;;;;;;;10.80;6.80;;;;;;;28.19;42.36;98587.16;5043259;28;20055;-94
2023/06/26 09:47:31;;;;;;;11.88;7.05;;;;;;;28.29;39.35;98587.94;5044282;28;20045;-94
2023/06/26 09:49:57;;;;;;;9.45;6.13;;;;;;;28.43;41.65;98575.53;5044056;28;20045;-93
2023/06/26 09:52:27;;;;;;;9.88;6.60;;;;;;;28.81;39.11;98589.88;5078124;28;20051;-94
2023/06/26 09:55:07;;;;;;;10.80;6.70;;;;;;;28.92;38.62;98588.72;5049504;28;20037;-93
2023/06/26 09:57:35;;;;;;;9.43;6.05;;;;;;;29.22;38.86;98596.44;5040539;28;20044;-92
2023/06/26 10:00:02;;;;;;;10.07;6.50;;;;;;;28.67;39.10;98591.34;5043821;28;20153;-93
2023/06/26 10:02:28;;;;;;;9.27;6.13;;;;;;;28.88;38.87;98597.25;5042660;28;20052;-94
2023/06/26 10:04:54;;;;;;;10.23;7.05;;;;;;;28.72;39.77;98605.38;5039486;28;20499;-92
2023/06/26 10:07:22;;;;;;;10.88;7.15;;;;;;;28.64;39.40;98608.06;5041285;28;20053;-93
2023/06/26 10:09:50;;;;;;;10.13;6.25;;;;;;;28.87;37.70;98613.84;5049880;28;20040;-93
2023/06/26 10:12:19;;;;;;;9.50;6.30;;;;;;;28.51;39.48;98594.78;5042518;28;20037;-94
2023/06/26 10:14:47;;;;;;;10.02;6.13;;;;;;;28.67;37.52;98611.34;5042945;28;20037;-94
2023/06/26 10:17:16;;;;;;;10.55;6.00;;;;;;;28.62;38.35;98605.47;5042368;28;20044;-93
2023/06/26 10:19:47;;;;;;;8.48;5.75;;;;;;;28.67;38.16;98591.34;5043203;28;20528;-94
2023/06/26 10:22:15;;;;;;;9.93;5.97;;;;;;;28.86;37.23;98595.69;5079381;28;20043;-94
2023/06/26 10:24:43;;;;;;;9.23;6.10;;;;;;;28.95;38.32;98607.56;5043109;28;20441;-93
2023/06/26 10:27:16;;;;;;;9.38;6.28;;;;;;;28.94;39.36;98595.75;5042630;28;20041;-94
2023/06/26 10:29:44;;;;;;;11.07;6.20;;;;;;;28.83;37.98;98601.50;5043456;28;20044;-95
2023/06/26 10:32:12;;;;;;;8.88;6.05;;;;;;;28.98;36.86;98577.97;5043504;28;20109;-93
2023/06/26 10:34:39;;;;;;;7.63;5.55;;;;;;;29.13;38.84;98586.47;5044034;28;20052;-94
2023/06/26 10:37:05;;;;;;;9.82;6.10;;;;;;;29.57;37.80;98599.13;5044584;28;20041;-95
2023/06/26 10:39:49;;;;;;;8.98;6.05;;;;;;;29.43;38.05;98593.25;5042007;28;20067;-92
2023/06/26 10:42:15;;;;;;;11.35;5.80;;;;;;;29.15;38.70;98599.97;5041926;28;20048;-94
2023/06/26 10:44:43;;;;;;;10.77;6.10;;;;;;;29.50;38.15;98587.97;5042440;28;20059;-94
2023/06/26 10:47:12;;;;;;;8.95;5.95;;;;;;;29.12;38.38;98583.88;5042231;28;20091;-94
2023/06/26 10:49:39;;;;;;;10.20;5.65;;;;;;;29.33;37.48;98576.09;5043181;28;20041;-94
2023/06/26 10:52:05;;;;;;;9.43;5.80;;;;;;;29.02;38.88;98579.38;5044059;28;20052;-94
2023/06/26 10:54:33;;;;;;;10.02;6.50;;;;;;;28.82;40.82;98586.97;5040875;28;20045;-94
2023/06/26 10:56:59;;;;;;;9.63;5.90;;;;;;;29.32;39.13;98590.84;5040329;28;20045;-95
2023/06/26 10:59:26;;;;;;;10.75;6.18;;;;;;;29.49;37.37;98578.91;5040907;28;20139;-95
2023/06/26 11:01:57;;;;;;;9.55;5.53;;;;;;;29.83;37.45;98579.84;5040906;28;20083;-93
2023/06/26 11:04:39;;;;;;;10.10;6.03;;;;;;;29.85;36.28;98580.53;5039635;28;20124;-95
2023/06/26 11:07:17;;;;;;;8.48;5.40;;;;;;;30.07;37.01;98592.72;5040926;28;20048;-94
2023/06/26 11:09:57;;;;;;;8.90;5.55;;;;;;;30.07;36.97;98585.34;5041135;28;20041;-93
2023/06/26 11:12:43;;;;;;;9.35;5.82;;;;;;;30.22;36.05;98592.91;5041454;28;20106;-93
2023/06/26 11:15:09;;;;;;;9.15;6.20;;;;;;;29.73;37.98;98580.00;5047502;28;20046;-94
2023/06/26 11:17:36;;;;;;;9.48;5.90;;;;;;;29.56;38.32;98578.22;5056242;28;20045;-93
2023/06/26 11:20:06;;;;;;;10.77;6.22;;;;;;;29.67;38.17;98569.69;5051659;28;20045;-93
2023/06/26 11:22:35;;;;;;;9.18;6.22;;;;;;;29.66;38.54;98566.06;5076007;28;20132;-93
2023/06/26 11:25:02;;;;;;;10.27;6.57;;;;;;;29.42;38.74;98585.22;5039334;28;20037;-95
2023/06/26 11:27:32;;;;;;;9.13;6.33;;;;;;;28.88;38.12;98593.66;5041083;28;20037;-94
2023/06/26 11:29:57;;;;;;;8.75;6.18;;;;;;;29.16;39.06;98596.22;5040243;28;20417;-94